Time;durP1;ratioP1;P1;durP2;ratioP2;P2;SDS_P1;SDS_P2;PMS_P1;PMS_P2;Temp;Humidity;BMP_temperature;BMP_pressure;BME280_temperature;BME280_humidity;BME280_pressure;Samples;Min_cycle;Max_cycle;Signal;HPM_P1;HPM_P2
2023/07/20 00:02:24;;;;;;;6.20;4.20;;;25.90;99.80;;;;;;5108428;28;20427;-74
2023/07/20 00:04:49;;;;;;;5.60;4.87;;;25.90;99.90;;;;;;5108375;28;20232;-74
2023/07/20 00:07:15;;;;;;;4.60;4.20;;;25.90;99.90;;;;;;5108706;27;21039;-74
2023/07/20 00:09:41;;;;;;;6.83;3.90;;;25.80;99.90;;;;;;5106250;28;20214;-73
2023/07/20 00:12:07;;;;;;;8.07;5.00;;;25.80;99.90;;;;;;5108290;28;20231;-77
2023/07/20 00:14:33;;;;;;;9.83;5.83;;;25.70;99.90;;;;;;5107056;28;20680;-79
2023/07/20 00:16:58;;;;;;;9.13;6.00;;;25.70;99.90;;;;;;5108024;28;20519;-74
2023/07/20 00:19:28;;;;;;;9.63;6.57;;;25.70;99.90;;;;;;5108473;28;20219;-79
2023/07/20 00:21:54;;;;;;;5.77;4.63;;;25.70;99.90;;;;;;5108311;28;20188;-74
2023/07/20 00:24:20;;;;;;;6.80;5.20;;;25.70;99.90;;;;;;5108212;28;20883;-73
2023/07/20 00:26:46;;;;;;;6.27;4.73;;;25.80;99.90;;;;;;5106617;28;20484;-74
2023/07/20 00:29:12;;;;;;;7.13;5.10;;;25.80;99.90;;;;;;5108014;28;20419;-79
2023/07/20 00:31:37;;;;;;;6.67;4.47;;;25.80;99.90;;;;;;5107900;28;20167;-79
2023/07/20 00:34:04;;;;;;;5.07;4.10;;;25.70;99.90;;;;;;5106448;28;20180;-74
2023/07/20 00:36:30;;;;;;;5.17;4.23;;;25.60;99.90;;;;;;5106682;28;20176;-79
2023/07/20 00:38:56;;;;;;;5.73;4.43;;;25.60;99.90;;;;;;5107514;28;20459;-79
2023/07/20 00:41:22;;;;;;;10.00;4.20;;;25.50;99.90;;;;;;5107888;28;20359;-79
2023/07/20 00:43:47;;;;;;;7.03;4.83;;;25.50;99.90;;;;;;5107463;28;20904;-74
2023/07/20 00:46:13;;;;;;;6.47;5.80;;;25.40;99.90;;;;;;5106474;28;20183;-73
2023/07/20 00:48:40;;;;;;;13.07;6.60;;;25.30;99.90;;;;;;5107608;28;20292;-74
2023/07/20 00:51:06;;;;;;;9.23;7.77;;;25.30;99.90;;;;;;5107441;28;20419;-74
2023/07/20 00:53:32;;;;;;;8.20;6.63;;;25.30;99.90;;;;;;5106128;28;20498;-78
2023/07/20 00:55:58;;;;;;;10.37;5.97;;;25.30;99.90;;;;;;5107678;28;20179;-74
2023/07/20 00:58:24;;;;;;;6.30;5.13;;;;;;;;;;5105959;28;20491;-74
2023/07/20 01:00:50;;;;;;;7.10;5.50;;;25.20;99.90;;;;;;5107926;28;20187;-79
2023/07/20 01:03:16;;;;;;;7.43;4.87;;;25.10;99.90;;;;;;5105906;28;20542;-73
2023/07/20 01:06:08;;;;;;;7.30;5.13;;;25.10;99.90;;;;;;5106708;28;20183;-74
2023/07/20 01:08:43;;;;;;;5.27;4.40;;;25.10;99.90;;;;;;5086164;28;20207;-79
2023/07/20 01:11:43;;;;;;;7.17;4.13;;;25.10;99.90;;;;;;5105436;28;20978;-74
2023/07/20 01:14:10;;;;;;;6.37;4.53;;;25.10;99.90;;;;;;5097582;28;20471;-79
2023/07/20 01:16:35;;;;;;;5.83;4.70;;;25.10;99.90;;;;;;5105857;28;20424;-74
2023/07/20 01:19:01;;;;;;;5.90;4.17;;;25.10;99.90;;;;;;5105530;28;20487;-79
2023/07/20 01:21:42;;;;;;;7.10;5.83;;;25.00;99.90;;;;;;5107280;28;20249;-74
2023/07/20 01:24:51;;;;;;;6.77;4.50;;;25.00;99.90;;;;;;5106718;28;20298;-74
2023/07/20 01:27:39;;;;;;;8.80;4.47;;;25.00;99.90;;;;;;5105220;28;20447;-74
2023/07/20 01:30:42;;;;;;;11.10;7.60;;;25.00;99.90;;;;;;5106746;28;20422;-73
2023/07/20 01:33:08;;;;;;;5.70;4.80;;;24.90;99.90;;;;;;5105348;28;20456;-79
2023/07/20 01:35:36;;;;;;;8.90;4.90;;;24.80;99.90;;;;;;5106658;28;20435;-79
2023/07/20 01:38:03;;;;;;;5.30;4.70;;;24.90;99.90;;;;;;5106532;28;20423;-77
2023/07/20 01:40:29;;;;;;;4.80;4.40;;;24.90;99.90;;;;;;5106578;28;20578;-79
2023/07/20 01:42:55;;;;;;;5.00;4.33;;;24.90;99.90;;;;;;5105401;28;20798;-78
2023/07/20 01:45:20;;;;;;;8.03;5.30;;;24.90;99.90;;;;;;5106283;28;20450;-78
2023/07/20 01:47:46;;;;;;;5.63;4.53;;;24.90;99.90;;;;;;5105001;28;20212;-74
2023/07/20 01:50:12;;;;;;;7.77;5.33;;;24.90;99.90;;;;;;5106085;28;20186;-74
2023/07/20 01:52:37;;;;;;;7.90;4.70;;;24.90;99.90;;;;;;5106555;28;20221;-79
2023/07/20 01:55:04;;;;;;;7.07;5.07;;;24.90;99.90;;;;;;5105977;28;20445;-79
2023/07/20 01:57:30;;;;;;;5.50;4.23;;;24.90;99.90;;;;;;5105126;28;20730;-79
2023/07/20 01:59:56;;;;;;;9.80;4.50;;;24.80;99.90;;;;;;5104827;28;20693;-74
2023/07/20 02:02:26;;;;;;;5.00;4.50;;;24.80;99.90;;;;;;5105138;28;20209;-75
2023/07/20 02:04:51;;;;;;;10.43;6.50;;;24.80;99.90;;;;;;5106236;28;20263;-79
2023/07/20 02:07:17;;;;;;;7.50;5.37;;;24.70;99.90;;;;;;5105043;28;20470;-79
2023/07/20 02:09:42;;;;;;;5.33;4.80;;;24.70;99.90;;;;;;5105472;28;20643;-79
2023/07/20 02:12:08;;;;;;;6.90;5.00;;;24.70;99.90;;;;;;5106004;28;20203;-79
2023/07/20 02:14:34;;;;;;;12.23;5.33;;;24.50;99.90;;;;;;5120109;27;20236;-79
2023/07/20 02:17:01;;;;;;;7.20;4.80;;;24.30;99.90;;;;;;5104274;28;20978;-78
2023/07/20 02:19:27;;;;;;;5.20;4.70;;;24.20;99.90;;;;;;5105881;28;20330;-74
2023/07/20 02:21:53;;;;;;;9.60;5.30;;;24.00;99.90;;;;;;5106001;28;20830;-73
2023/07/20 02:24:19;;;;;;;5.67;4.80;;;24.00;99.90;;;;;;5104398;28;20539;-74
2023/07/20 02:26:44;;;;;;;7.63;5.10;;;24.00;99.90;;;;;;5105834;28;20236;-79
2023/07/20 02:29:13;;;;;;;7.47;5.40;;;24.00;99.90;;;;;;5105516;28;21024;-74
2023/07/20 02:31:39;;;;;;;8.77;5.43;;;24.00;99.90;;;;;;5106340;28;20362;-74
2023/07/20 02:34:06;;;;;;;10.40;5.50;;;24.00;99.90;;;;;;5105724;28;20418;-79
2023/07/20 02:36:35;;;;;;;6.63;4.70;;;23.90;99.90;;;;;;5104374;28;20420;-79
2023/07/20 02:39:02;;;;;;;8.40;6.03;;;23.70;99.90;;;;;;5105849;28;20474;-74
2023/07/20 02:41:27;;;;;;;11.47;4.83;;;23.60;99.90;;;;;;5105969;28;20780;-79
2023/07/20 02:43:53;;;;;;;7.10;4.87;;;23.60;99.90;;;;;;5104346;28;20424;-74
2023/07/20 02:46:19;;;;;;;11.97;5.40;;;23.60;99.90;;;;;;5105813;28;20176;-74
2023/07/20 02:48:44;;;;;;;7.93;5.17;;;23.50;99.90;;;;;;5103980;28;20220;-73
2023/07/20 02:51:11;;;;;;;7.67;6.30;;;23.40;99.90;;;;;;5104201;28;20177;-74
2023/07/20 02:53:36;;;;;;;8.53;5.57;;;23.40;99.90;;;;;;5104291;28;20223;-73
2023/07/20 02:56:02;;;;;;;6.57;5.37;;;23.40;99.90;;;;;;5105465;28;20647;-74
2023/07/20 02:58:28;;;;;;;7.87;4.93;;;23.40;99.90;;;;;;5105132;28;20195;-74
2023/07/20 03:00:53;;;;;;;10.20;5.10;;;23.40;99.90;;;;;;5103562;28;20178;-79
2023/07/20 03:03:20;;;;;;;6.87;5.10;;;23.40;99.90;;;;;;5104294;28;20222;-79
2023/07/20 03:05:45;;;;;;;7.00;5.97;;;23.40;99.90;;;;;;5105759;28;20630;-75
2023/07/20 03:08:11;;;;;;;6.80;4.97;;;23.50;99.90;;;;;;5104039;28;20448;-73
2023/07/20 03:10:40;;;;;;;7.90;4.80;;;23.60;99.90;;;;;;5105136;28;20203;-79
2023/07/20 03:13:06;;;;;;;6.73;5.20;;;23.70;99.90;;;;;;5104308;28;20224;-74
2023/07/20 03:15:32;;;;;;;6.90;4.70;;;23.70;99.90;;;;;;5103922;28;20746;-79
2023/07/20 03:17:58;;;;;;;7.40;5.80;;;23.70;99.90;;;;;;5104264;28;20768;-74
2023/07/20 03:20:24;;;;;;;7.43;5.10;;;23.70;99.90;;;;;;5105201;28;20742;-78
2023/07/20 03:22:50;;;;;;;7.65;5.00;;;23.80;99.90;;;;;;5105325;28;20479;-74
2023/07/20 03:25:15;;;;;;;7.63;5.50;;;23.70;99.90;;;;;;5104990;28;20814;-74
2023/07/20 03:27:41;;;;;;;5.20;4.70;;;23.70;99.90;;;;;;5104046;28;20192;-79
2023/07/20 03:30:09;;;;;;;11.90;5.60;;;23.70;99.90;;;;;;5107666;28;20187;-74
2023/07/20 03:32:35;;;;;;;8.43;6.10;;;23.70;99.90;;;;;;5109253;28;20215;-74
2023/07/20 03:35:01;;;;;;;11.03;5.50;;;23.70;99.90;;;;;;5109194;28;20472;-78
2023/07/20 03:37:27;;;;;;;8.50;5.50;;;23.60;99.90;;;;;;5107672;28;20440;-73
2023/07/20 03:39:52;;;;;;;10.07;4.57;;;23.60;99.90;;;;;;5107398;28;20536;-74
2023/07/20 03:42:18;;;;;;;7.53;5.30;;;23.50;99.90;;;;;;5106589;28;20253;-73
2023/07/20 03:44:44;;;;;;;10.97;5.60;;;23.30;99.90;;;;;;5107355;28;20191;-73
2023/07/20 03:47:10;;;;;;;6.00;4.57;;;23.20;99.90;;;;;;5107347;28;20268;-73
2023/07/20 03:49:35;;;;;;;68.63;42.77;;;23.10;99.90;;;;;;5107578;28;20625;-73
2023/07/20 03:52:03;;;;;;;9.70;5.70;;;23.10;99.90;;;;;;5108886;28;20227;-73
2023/07/20 03:54:29;;;;;;;8.00;5.97;;;22.90;99.90;;;;;;5106301;28;20618;-73
2023/07/20 03:56:55;;;;;;;8.47;4.70;;;22.80;99.90;;;;;;5108231;28;20489;-78
2023/07/20 03:59:21;;;;;;;10.00;5.20;;;22.70;99.90;;;;;;5108414;28;20487;-74
2023/07/20 04:01:46;;;;;;;8.77;5.60;;;22.50;99.90;;;;;;5108393;28;20442;-78
2023/07/20 04:04:13;;;;;;;7.23;6.17;;;22.40;99.90;;;;;;5107830;28;20180;-78
2023/07/20 04:06:39;;;;;;;9.37;5.73;;;22.30;99.90;;;;;;5107308;28;20613;-73
2023/07/20 04:09:05;;;;;;;8.73;5.27;;;22.20;99.90;;;;;;5106593;28;20467;-73
2023/07/20 04:11:31;;;;;;;7.60;6.00;;;22.10;99.90;;;;;;5107567;28;20557;-73
2023/07/20 04:13:56;;;;;;;8.67;5.90;;;22.10;99.90;;;;;;5107205;28;20454;-74
2023/07/20 04:16:22;;;;;;;7.50;5.13;;;22.10;99.90;;;;;;5108134;28;20231;-78
2023/07/20 04:18:48;;;;;;;7.47;5.20;;;22.10;99.90;;;;;;5106526;28;20444;-74
2023/07/20 04:21:14;;;;;;;7.47;5.20;;;22.20;99.90;;;;;;5108055;28;20284;-74
2023/07/20 04:23:40;;;;;;;8.13;5.60;;;22.20;99.90;;;;;;5107663;28;20184;-74
2023/07/20 04:26:06;;;;;;;5.50;4.93;;;22.20;99.90;;;;;;5106523;28;20416;-74
2023/07/20 04:28:32;;;;;;;7.90;4.67;;;22.20;99.90;;;;;;5106020;28;20203;-77
2023/07/20 04:31:11;;;;;;;7.57;6.40;;;22.20;99.90;;;;;;5106675;28;20424;-73
2023/07/20 04:33:36;;;;;;;6.17;4.93;;;22.30;99.90;;;;;;5107752;28;20216;-73
2023/07/20 04:36:02;;;;;;;7.47;5.90;;;22.40;99.90;;;;;;5107567;28;20865;-73
2023/07/20 04:38:28;;;;;;;8.03;5.27;;;22.40;99.90;;;;;;5105737;28;20342;-78
2023/07/20 04:40:54;;;;;;;7.07;5.30;;;22.50;99.90;;;;;;5107718;28;20538;-78
2023/07/20 04:43:19;;;;;;;6.63;4.83;;;22.60;99.90;;;;;;5105224;27;20663;-78
2023/07/20 04:45:45;;;;;;;8.07;5.23;;;22.60;99.90;;;;;;5097098;28;20241;-78
2023/07/20 04:48:13;;;;;;;7.90;5.63;;;22.60;99.90;;;;;;5095811;28;20494;-73
2023/07/20 04:50:44;;;;;;;6.70;5.60;;;22.70;99.90;;;;;;5096441;28;20428;-73
2023/07/20 04:53:11;;;;;;;6.90;5.50;;;22.70;99.90;;;;;;5095632;28;20440;-78
2023/07/20 04:55:38;;;;;;;9.57;5.23;;;22.80;99.90;;;;;;5095003;28;20439;-73
2023/07/20 04:58:04;;;;;;;18.92;15.02;;;22.90;99.90;;;;;;5096083;28;20537;-81
2023/07/20 05:00:30;;;;;;;31.03;22.33;;;23.00;99.90;;;;;;5098991;28;20668;-74
2023/07/20 05:02:56;;;;;;;8.20;5.80;;;23.10;99.90;;;;;;5100352;28;20440;-79
2023/07/20 05:05:22;;;;;;;6.73;5.07;;;23.20;99.90;;;;;;5106467;28;20912;-79
2023/07/20 05:07:48;;;;;;;8.30;5.37;;;23.30;99.90;;;;;;5106927;28;20188;-75
2023/07/20 05:10:13;;;;;;;7.07;5.00;;;23.50;99.90;;;;;;5106522;28;20185;-79
2023/07/20 05:12:39;;;;;;;6.67;4.70;;;23.60;99.90;;;;;;5106328;28;20703;-79
2023/07/20 05:15:05;;;;;;;9.30;5.53;;;23.90;99.90;;;;;;5106511;28;20623;-76
2023/07/20 05:17:31;;;;;;;11.23;5.40;;;24.00;99.90;;;;;;5106353;28;20718;-79
2023/07/20 05:19:56;;;;;;;6.33;5.03;;;24.20;99.90;;;;;;5106154;28;20475;-80
2023/07/20 05:22:22;;;;;;;8.27;4.70;;;24.30;99.90;;;;;;5093738;28;20265;-79
2023/07/20 05:24:48;;;;;;;5.47;4.53;;;24.60;99.90;;;;;;5085614;28;20572;-76
2023/07/20 05:27:14;;;;;;;8.50;5.30;;;24.80;99.90;;;;;;5084087;28;20480;-80
2023/07/20 05:29:46;;;;;;;5.80;4.70;;;25.00;99.90;;;;;;5086690;28;20824;-79
2023/07/20 05:32:13;;;;;;;7.57;5.37;;;25.20;99.90;;;;;;5087804;28;20241;-79
2023/07/20 05:34:38;;;;;;;7.80;4.30;;;25.40;99.90;;;;;;5085038;28;20408;-75
2023/07/20 05:37:05;;;;;;;5.93;4.17;;;25.60;99.90;;;;;;5082222;28;20428;-76
2023/07/20 05:39:32;;;;;;;14.33;9.77;;;25.80;99.90;;;;;;5083667;28;20276;-76
2023/07/20 05:41:58;;;;;;;8.50;5.33;;;26.00;99.90;;;;;;5085730;28;20491;-76
2023/07/20 05:44:24;;;;;;;8.43;4.40;;;26.30;99.90;;;;;;5088336;28;20498;-76
2023/07/20 05:46:50;;;;;;;5.90;4.70;;;26.50;99.90;;;;;;5101760;28;20589;-80
2023/07/20 05:49:15;;;;;;;4.30;3.70;;;26.70;99.90;;;;;;5093736;28;20218;-79
2023/07/20 05:51:41;;;;;;;6.77;4.40;;;26.90;99.90;;;;;;5097029;28;20165;-80
2023/07/20 05:54:07;;;;;;;5.00;4.53;;;27.00;99.90;;;;;;5083809;28;20241;-76
2023/07/20 05:56:32;;;;;;;8.80;5.47;;;27.10;99.90;;;;;;5082460;28;20200;-80
2023/07/20 05:58:58;;;;;;;6.03;4.03;;;27.20;99.90;;;;;;5096960;28;20568;-76
2023/07/20 06:01:27;;;;;;;5.13;3.53;;;27.40;99.90;;;;;;5100548;28;20301;-80
2023/07/20 06:03:53;;;;;;;5.20;3.77;;;27.60;99.90;;;;;;5098152;28;20936;-76
2023/07/20 06:06:19;;;;;;;5.30;4.50;;;27.60;99.90;;;;;;5095965;28;20408;-80
2023/07/20 06:08:45;;;;;;;5.53;3.90;;;27.80;99.90;;;;;;5092480;28;20561;-76
2023/07/20 06:11:11;;;;;;;4.87;4.40;;;27.80;99.90;;;;;;5097898;28;20408;-77
2023/07/20 06:13:36;;;;;;;7.13;4.40;;;27.90;99.90;;;;;;5097223;28;20917;-77
2023/07/20 06:16:03;;;;;;;5.03;4.23;;;28.10;99.90;;;;;;5097757;28;20266;-76
2023/07/20 06:18:30;;;;;;;6.00;4.47;;;28.20;99.90;;;;;;5080261;28;20874;-81
2023/07/20 06:20:55;;;;;;;5.20;4.17;;;28.20;99.90;;;;;;5095991;28;20428;-78
2023/07/20 06:23:21;;;;;;;6.07;4.37;;;28.20;99.90;;;;;;5098527;28;20435;-76
2023/07/20 06:25:47;;;;;;;5.20;4.10;;;28.20;99.90;;;;;;5080946;28;20467;-80
2023/07/20 06:28:13;;;;;;;5.93;4.60;;;28.30;99.90;;;;;;5081435;28;20441;-79
2023/07/20 06:30:39;;;;;;;4.70;3.67;;;28.40;99.90;;;;;;5093698;28;20208;-75
2023/07/20 06:33:05;;;;;;;7.10;4.20;;;28.40;99.90;;;;;;5078370;28;20449;-79
2023/07/20 06:35:31;;;;;;;6.97;4.80;;;28.30;99.90;;;;;;5094196;28;20961;-79
2023/07/20 06:37:57;;;;;;;6.10;4.13;;;28.20;99.90;;;;;;5098847;28;20203;-79
2023/07/20 06:40:23;;;;;;;7.10;3.97;;;28.10;99.90;;;;;;5088020;28;20222;-77
2023/07/20 06:42:48;;;;;;;4.50;4.10;;;28.00;99.90;;;;;;5094593;28;20440;-78
2023/07/20 06:45:14;;;;;;;3.60;3.27;;;27.90;99.90;;;;;;5095504;28;20479;-77
2023/07/20 06:47:40;;;;;;;7.63;4.37;;;27.90;99.90;;;;;;5078840;28;20292;-77
2023/07/20 06:50:07;;;;;;;8.33;4.43;;;27.90;99.90;;;;;;5087289;28;20266;-79
2023/07/20 06:52:33;;;;;;;9.40;4.67;;;27.90;99.90;;;;;;5084050;28;20199;-76
2023/07/20 06:54:58;;;;;;;6.43;4.60;;;27.80;99.90;;;;;;5099350;28;20503;-78
2023/07/20 06:57:24;;;;;;;6.73;4.30;;;27.70;99.90;;;;;;5095089;28;20523;-78
2023/07/20 06:59:50;;;;;;;5.30;3.87;;;27.50;99.90;;;;;;5099194;28;20310;-77
2023/07/20 07:02:16;;;;;;;6.20;4.30;;;27.40;99.90;;;;;;5098525;28;20825;-79
2023/07/20 07:04:42;;;;;;;6.13;4.60;;;27.30;99.90;;;;;;5102892;28;20237;-76
2023/07/20 07:07:09;;;;;;;18.67;6.07;;;27.30;99.90;;;;;;5091004;28;20203;-76
2023/07/20 07:09:34;;;;;;;22.93;5.90;;;27.30;99.90;;;;;;5083820;28;20519;-79
2023/07/20 07:12:00;;;;;;;6.90;4.70;;;27.30;99.90;;;;;;5104106;28;20897;-75
2023/07/20 07:14:26;;;;;;;7.40;4.77;;;27.20;99.90;;;;;;5103038;28;20233;-75
2023/07/20 07:16:52;;;;;;;5.53;3.93;;;27.20;99.90;;;;;;5083770;28;20420;-75
2023/07/20 07:19:17;;;;;;;5.90;4.30;;;27.20;99.90;;;;;;5082613;28;20251;-79
2023/07/20 07:21:43;;;;;;;4.47;3.60;;;27.30;99.90;;;;;;5083423;28;20176;-78
2023/07/20 07:24:09;;;;;;;8.90;3.97;;;27.30;99.90;;;;;;5090233;28;20686;-79
2023/07/20 07:26:36;;;;;;;5.30;3.73;;;27.40;99.90;;;;;;5094945;28;20237;-79
2023/07/20 07:29:01;;;;;;;5.70;4.27;;;27.40;99.90;;;;;;5085118;28;20425;-78
2023/07/20 07:31:30;;;;;;;5.37;4.23;;;27.40;99.90;;;;;;5083203;28;20813;-75
2023/07/20 07:33:56;;;;;;;12.40;5.10;;;27.40;99.90;;;;;;5095220;28;20210;-78
2023/07/20 07:36:24;;;;;;;3.73;3.43;;;27.50;99.90;;;;;;5103722;28;20416;-75
2023/07/20 07:38:50;;;;;;;5.23;4.03;;;27.60;99.90;;;;;;5102133;28;20618;-75
2023/07/20 07:41:15;;;;;;;6.97;4.00;;;27.60;99.90;;;;;;5088223;28;21233;-75
2023/07/20 07:43:41;;;;;;;5.90;4.17;;;27.70;99.90;;;;;;5088199;28;20613;-78
2023/07/20 07:46:07;;;;;;;8.27;4.53;;;27.70;99.90;;;;;;5088086;28;20592;-76
2023/07/20 07:48:32;;;;;;;5.53;4.60;;;27.80;99.90;;;;;;5084139;28;20192;-78
2023/07/20 07:50:58;;;;;;;5.00;4.07;;;27.90;99.90;;;;;;5094834;28;20251;-75
2023/07/20 07:53:25;;;;;;;5.93;4.60;;;28.00;99.90;;;;;;5093152;28;20730;-78
2023/07/20 07:55:52;;;;;;;6.67;4.23;;;28.10;99.90;;;;;;5097736;28;20244;-75
2023/07/20 07:58:17;;;;;;;6.33;4.43;;;28.20;99.90;;;;;;5081812;28;20425;-75
2023/07/20 08:00:44;;;;;;;7.90;4.40;;;28.20;99.90;;;;;;5081248;28;21091;-79
2023/07/20 08:03:10;;;;;;;4.93;4.30;;;28.30;99.90;;;;;;5081366;28;20191;-75
2023/07/20 08:05:36;;;;;;;5.80;3.80;;;28.40;99.90;;;;;;5094289;28;20655;-75
2023/07/20 08:08:03;;;;;;;4.50;4.07;;;28.50;99.90;;;;;;5090256;28;20460;-75
2023/07/20 08:10:29;;;;;;;6.00;3.97;;;28.50;99.90;;;;;;5082720;28;20548;-75
2023/07/20 08:12:55;;;;;;;4.60;4.20;;;28.60;99.90;;;;;;5097038;28;20469;-76
2023/07/20 08:15:21;;;;;;;4.50;4.10;;;28.60;99.90;;;;;;5080614;28;20813;-78
2023/07/20 08:17:48;;;;;;;5.90;4.13;;;28.70;99.90;;;;;;5092007;28;20427;-79
2023/07/20 08:20:16;;;;;;;9.17;4.60;;;28.80;99.90;;;;;;5093796;28;20214;-78
2023/07/20 08:22:42;;;;;;;4.63;4.23;;;28.80;99.90;;;;;;5087607;28;20465;-77
2023/07/20 08:25:08;;;;;;;5.13;4.13;;;28.90;99.90;;;;;;5087851;28;20426;-78
2023/07/20 08:27:34;;;;;;;5.50;3.90;;;28.90;99.90;;;;;;5088738;28;20796;-75
2023/07/20 08:30:01;;;;;;;4.90;4.07;;;28.90;99.90;;;;;;5084101;28;20455;-79
2023/07/20 08:32:26;;;;;;;4.57;3.67;;;29.00;99.90;;;;;;5077898;28;20443;-78
2023/07/20 08:34:52;;;;;;;5.13;3.97;;;29.00;99.90;;;;;;5081479;28;20434;-76
2023/07/20 08:37:18;;;;;;;6.57;4.40;;;29.00;99.90;;;;;;5088474;28;20583;-79
2023/07/20 08:39:44;;;;;;;7.60;4.10;;;29.20;99.90;;;;;;5095937;28;20476;-79
2023/07/20 08:42:10;;;;;;;6.73;3.87;;;29.40;99.90;;;;;;5083580;28;20749;-75
2023/07/20 08:44:38;;;;;;;8.87;3.83;;;29.40;99.90;;;;;;5076521;28;20228;-75
2023/07/20 08:47:05;;;;;;;6.13;3.63;;;29.40;99.90;;;;;;5091727;28;20451;-75
2023/07/20 08:49:32;;;;;;;4.70;3.53;;;29.60;99.90;;;;;;5092255;28;20452;-78
2023/07/20 08:51:58;;;;;;;9.47;4.67;;;29.80;99.30;;;;;;5084047;28;20446;-77
2023/07/20 08:54:29;;;;;;;5.40;4.30;;;29.80;99.90;;;;;;5089552;28;20437;-79
2023/07/20 08:56:57;;;;;;;5.37;3.80;;;29.90;99.80;;;;;;5095643;28;20593;-75
2023/07/20 08:59:24;;;;;;;5.73;3.87;;;29.90;99.60;;;;;;5094451;28;20484;-79
2023/07/20 09:01:52;;;;;;;5.53;4.07;;;30.10;99.30;;;;;;5100274;28;21135;-78
2023/07/20 09:04:18;;;;;;;5.23;4.00;;;30.10;99.90;;;;;;5097530;28;20933;-79
2023/07/20 09:06:44;;;;;;;7.37;4.90;;;30.20;98.10;;;;;;5091222;28;20434;-76
2023/07/20 09:09:10;;;;;;;6.33;4.13;;;30.30;96.80;;;;;;5095975;28;20438;-78
2023/07/20 09:11:36;;;;;;;8.00;4.00;;;30.50;97.20;;;;;;5091929;28;20435;-79
2023/07/20 09:14:06;;;;;;;7.90;4.20;;;30.40;98.50;;;;;;5088568;28;20813;-79
2023/07/20 09:16:32;;;;;;;4.20;3.80;;;30.50;98.70;;;;;;5102556;28;20715;-76
2023/07/20 09:18:59;;;;;;;4.40;4.00;;;30.60;97.50;;;;;;5093787;28;20991;-75
2023/07/20 09:21:30;;;;;;;6.17;4.07;;;30.70;96.20;;;;;;5072571;28;20859;-78
2023/07/20 09:23:57;;;;;;;6.27;4.53;;;30.80;95.60;;;;;;5089913;28;20451;-75
2023/07/20 09:26:22;;;;;;;4.13;3.73;;;30.90;95.60;;;;;;5095526;28;20446;-76
2023/07/20 09:28:51;;;;;;;6.07;4.37;;;31.00;96.40;;;;;;5092902;28;20442;-76
2023/07/20 09:31:18;;;;;;;4.43;3.73;;;31.10;94.10;;;;;;5092865;28;20210;-79
2023/07/20 09:33:45;;;;;;;6.37;4.00;;;31.20;94.20;;;;;;5094163;28;20471;-75
2023/07/20 09:36:13;;;;;;;6.00;4.00;;;31.30;93.50;;;;;;5084213;28;20428;-75
2023/07/20 09:38:42;;;;;;;6.00;3.77;;;31.40;93.90;;;;;;5085423;28;20444;-79
2023/07/20 09:41:08;;;;;;;5.20;3.93;;;31.50;93.40;;;;;;5098681;28;20677;-76
2023/07/20 09:43:37;;;;;;;4.90;3.93;;;31.50;94.80;;;;;;5100932;28;20733;-76
2023/07/20 09:46:03;;;;;;;5.77;3.80;;;31.60;92.90;;;;;;5088634;28;20440;-78
2023/07/20 09:48:30;;;;;;;7.10;4.60;;;31.60;93.90;;;;;;5093047;28;20456;-78
2023/07/20 09:50:56;;;;;;;4.47;3.43;;;31.50;95.00;;;;;;5088654;28;20175;-79
2023/07/20 09:53:24;;;;;;;5.20;3.70;;;31.50;93.20;;;;;;5086986;28;20461;-79
2023/07/20 09:55:52;;;;;;;8.47;4.70;;;31.50;94.60;;;;;;5093896;28;20455;-79
2023/07/20 09:58:17;;;;;;;7.20;4.03;;;31.40;95.30;;;;;;5091646;28;20936;-79
2023/07/20 10:00:47;;;;;;;4.63;3.77;;;31.50;94.00;;;;;;5095787;28;20874;-75
2023/07/20 10:03:18;;;;;;;4.20;3.43;;;31.70;89.60;;;;;;5085770;28;20208;-78
2023/07/20 10:05:49;;;;;;;3.97;3.60;;;31.60;94.50;;;;;;5089473;28;20754;-76
2023/07/20 10:08:16;;;;;;;4.93;3.60;;;31.50;93.80;;;;;;5099284;28;20440;-75
2023/07/20 10:10:43;;;;;;;4.60;4.10;;;31.50;95.10;;;;;;5084479;28;20552;-75
2023/07/20 10:13:16;;;;;;;5.17;3.60;;;31.50;94.60;;;;;;5096583;28;20988;-75
2023/07/20 10:15:54;;;;;;;5.73;4.23;;;31.50;95.00;;;;;;5092732;28;20669;-76
2023/07/20 10:18:29;;;;;;;6.30;3.57;;;31.50;90.40;;;;;;5097247;28;20601;-79
2023/07/20 10:20:56;;;;;;;5.13;4.07;;;31.80;87.80;;;;;;5096830;28;20535;-79
2023/07/20 10:23:23;;;;;;;5.00;3.70;;;31.80;88.90;;;;;;5095077;28;20460;-79
2023/07/20 10:25:50;;;;;;;4.40;3.73;;;31.90;90.60;;;;;;5094746;28;20429;-78
2023/07/20 10:28:16;;;;;;;6.30;3.60;;;32.00;90.90;;;;;;5079003;28;21014;-79
2023/07/20 10:30:42;;;;;;;3.80;3.40;;;32.10;84.20;;;;;;5086007;28;20708;-79
2023/07/20 10:33:09;;;;;;;4.00;3.30;;;32.00;90.70;;;;;;5091866;28;20468;-76
2023/07/20 10:35:57;;;;;;;3.93;3.53;;;31.90;88.90;;;;;;5088716;28;21175;-76
2023/07/20 10:38:45;;;;;;;6.13;3.17;;;32.10;83.90;;;;;;5099694;28;20976;-75
2023/07/20 10:41:20;;;;;;;5.70;3.30;;;32.20;82.30;;;;;;5099569;28;20451;-75
2023/07/20 10:43:47;;;;;;;3.43;3.13;;;32.20;88.50;;;;;;5097956;28;20515;-76
2023/07/20 10:46:13;;;;;;;8.70;4.13;;;32.10;91.20;;;;;;5102320;28;20419;-75
2023/07/20 10:49:02;;;;;;;7.60;3.53;;;32.10;89.70;;;;;;5093627;28;20448;-78
2023/07/20 10:51:28;;;;;;;5.07;3.83;;;32.30;84.60;;;;;;5081217;28;20187;-79
2023/07/20 10:53:58;;;;;;;4.50;3.37;;;32.10;91.10;;;;;;5099552;28;20482;-76
2023/07/20 10:56:30;;;;;;;8.20;3.30;;;31.70;92.60;;;;;;5101481;28;20504;-76
2023/07/20 10:59:00;;;;;;;5.40;3.50;;;31.60;92.80;;;;;;5098931;28;20682;-78
2023/07/20 11:01:37;;;;;;;4.40;3.60;;;31.40;93.50;;;;;;5091612;28;20544;-76
2023/07/20 11:04:08;;;;;;;6.80;4.13;;;31.60;91.10;;;;;;5099687;28;20804;-78
2023/07/20 11:06:34;;;;;;;7.10;4.43;;;31.60;92.40;;;;;;5113852;27;20464;-78
2023/07/20 11:09:07;;;;;;;5.77;3.87;;;31.80;90.70;;;;;;5095774;28;20638;-79
2023/07/20 11:11:39;;;;;;;7.30;3.77;;;32.00;91.40;;;;;;5094816;28;20778;-76
2023/07/20 11:14:21;;;;;;;4.40;3.60;;;32.00;92.10;;;;;;5091713;28;20642;-77
2023/07/20 11:16:48;;;;;;;5.67;3.40;;;32.10;92.50;;;;;;5093737;28;20508;-75
2023/07/20 11:19:19;;;;;;;4.07;3.67;;;32.00;90.60;;;;;;5097487;28;21000;-76
2023/07/20 11:21:52;;;;;;;7.77;4.57;;;32.20;84.10;;;;;;5096110;28;20468;-79
2023/07/20 11:24:18;;;;;;;8.97;3.80;;;32.20;90.50;;;;;;5092870;28;20523;-75
2023/07/20 11:26:46;;;;;;;5.57;3.43;;;32.10;89.30;;;;;;5095143;28;20947;-76
2023/07/20 11:29:13;;;;;;;7.27;3.00;;;32.30;85.60;;;;;;5096072;27;20435;-75
2023/07/20 11:31:40;;;;;;;4.83;3.90;;;32.30;82.60;;;;;;5091717;28;20424;-78
2023/07/20 11:34:07;;;;;;;8.17;3.53;;;32.40;89.00;;;;;;5088177;28;20510;-76
2023/07/20 11:36:33;;;;;;;8.37;4.37;;;32.40;81.10;;;;;;5099109;28;20968;-79
2023/07/20 11:39:00;;;;;;;6.67;4.60;;;32.40;83.30;;;;;;5094251;28;20456;-76
2023/07/20 11:41:26;;;;;;;6.47;3.87;;;32.60;81.70;;;;;;5097098;28;20471;-78
2023/07/20 11:43:53;;;;;;;9.27;4.70;;;32.60;85.50;;;;;;5091944;28;20949;-78
2023/07/20 11:46:19;;;;;;;5.67;4.10;;;32.70;83.20;;;;;;5097244;27;20413;-78
2023/07/20 11:48:45;;;;;;;10.93;4.60;;;32.80;85.30;;;;;;5093176;27;21023;-75
2023/07/20 11:51:16;;;;;;;11.67;6.40;;;32.70;82.60;;;;;;5083377;27;20538;-78
2023/07/20 11:53:42;;;;;;;6.00;4.40;;;32.90;81.80;;;;;;5097488;28;20653;-76
2023/07/20 11:56:08;;;;;;;6.03;3.80;;;32.70;87.00;;;;;;5095610;28;20445;-76
2023/07/20 11:58:34;;;;;;;5.43;4.60;;;32.60;88.20;;;;;;5099527;28;20597;-79
2023/07/20 12:00:59;;;;;;;5.70;4.17;;;32.60;85.10;;;;;;5097443;27;20213;-79
2023/07/20 12:03:25;;;;;;;4.40;3.57;;;32.60;85.70;;;;;;5103903;27;20478;-78
2023/07/20 12:05:51;;;;;;;5.67;3.93;;;32.40;90.00;;;;;;5102109;28;20183;-76
2023/07/20 12:08:16;;;;;;;5.10;3.90;;;32.60;82.50;;;;;;5102930;28;20278;-75
2023/07/20 12:10:43;;;;;;;6.03;3.93;;;32.60;86.40;;;;;;5102106;28;20574;-78
2023/07/20 12:13:13;;;;;;;3.63;3.10;;;32.40;89.10;;;;;;5101615;27;20214;-76
2023/07/20 12:15:39;;;;;;;5.10;3.53;;;32.10;91.30;;;;;;5102466;28;20478;-78
2023/07/20 12:18:05;;;;;;;4.40;3.20;;;32.40;80.50;;;;;;5102223;28;20960;-78
2023/07/20 12:20:37;;;;;;;6.20;4.70;;;32.40;83.30;;;;;;5100447;27;20226;-79
2023/07/20 12:23:04;;;;;;;4.83;3.23;;;32.60;80.70;;;;;;5096265;27;20447;-79
2023/07/20 12:25:48;;;;;;;5.27;3.57;;;32.70;80.60;;;;;;5091408;28;20515;-79
2023/07/20 12:28:16;;;;;;;4.90;3.30;;;32.90;77.50;;;;;;5098499;27;20568;-76
2023/07/20 12:30:44;;;;;;;7.87;3.50;;;32.90;78.40;;;;;;5099268;27;20425;-76
2023/07/20 12:33:10;;;;;;;5.03;3.13;;;32.90;80.90;;;;;;5099453;28;20553;-78
2023/07/20 12:35:35;;;;;;;5.30;3.23;;;33.00;82.40;;;;;;5098964;27;20869;-76
2023/07/20 12:38:01;;;;;;;3.10;2.80;;;32.90;84.40;;;;;;5095504;28;20227;-79
2023/07/20 12:40:27;;;;;;;6.50;3.40;;;33.10;80.50;;;;;;5101979;27;20241;-76
2023/07/20 12:42:53;;;;;;;6.07;3.17;;;33.10;78.30;;;;;;5093374;28;20238;-79
2023/07/20 12:45:18;;;;;;;5.10;3.70;;;33.10;79.80;;;;;;5089154;28;20197;-75
2023/07/20 12:47:44;;;;;;;13.07;3.47;;;33.20;75.70;;;;;;5099116;27;20570;-78